createdAt,value
2023-04-07T00:01:09.822Z,0
2023-04-07T00:03:09.811Z,0
2023-04-07T00:05:10.146Z,0
2023-04-07T00:07:09.736Z,0
2023-04-07T00:09:09.844Z,0
2023-04-07T00:11:09.882Z,0
2023-04-07T00:13:09.796Z,0
2023-04-07T00:17:09.900Z,0
2023-04-07T00:21:09.923Z,0
2023-04-07T00:23:09.902Z,0
2023-04-07T00:25:16.705Z,0
2023-04-07T00:29:16.387Z,0
2023-04-07T00:31:09.748Z,0
2023-04-07T00:35:13.271Z,1
2023-04-07T00:37:09.805Z,1
2023-04-07T00:39:09.773Z,1
2023-04-07T00:43:09.816Z,1
2023-04-07T00:45:09.790Z,1
2023-04-07T00:47:09.752Z,1
2023-04-07T00:49:11.321Z,0
2023-04-07T00:51:09.768Z,0
2023-04-07T00:53:09.753Z,0
2023-04-07T00:55:09.824Z,0
2023-04-07T00:57:09.923Z,0
2023-04-07T00:59:09.806Z,0
2023-04-07T01:01:13.301Z,1
2023-04-07T01:03:13.317Z,0
2023-04-07T01:05:10.012Z,1
2023-04-07T01:07:09.636Z,1
2023-04-07T01:09:13.216Z,1
2023-04-07T01:11:12.819Z,1
2023-04-07T01:13:09.683Z,1
2023-04-07T01:15:13.245Z,1
2023-04-07T01:17:13.239Z,1
2023-04-07T01:19:09.651Z,1
2023-04-07T01:21:09.676Z,1
2023-04-07T01:23:09.634Z,1
2023-04-07T01:25:10.048Z,1
2023-04-07T01:27:13.379Z,1
2023-04-07T01:29:16.385Z,1
2023-04-07T01:31:12.908Z,1
2023-04-07T01:35:13.205Z,1
2023-04-07T01:37:13.012Z,1
2023-04-07T01:39:09.664Z,1
2023-04-07T01:41:09.741Z,1
2023-04-07T01:43:09.648Z,1
2023-04-07T01:45:09.792Z,1
2023-04-07T01:47:09.931Z,1
2023-04-07T01:49:09.646Z,1
2023-04-07T01:51:13.336Z,1
2023-04-07T01:53:09.641Z,1
2023-04-07T01:55:09.663Z,1
2023-04-07T01:57:10.035Z,1
2023-04-07T01:59:13.186Z,1
2023-04-07T02:01:09.673Z,1
2023-04-07T02:03:10.088Z,1
2023-04-07T02:05:13.178Z,1
2023-04-07T02:07:12.973Z,1
2023-04-07T02:09:09.865Z,1
2023-04-07T02:11:09.749Z,1
2023-04-07T02:13:09.667Z,1
2023-04-07T02:15:10.280Z,1
2023-04-07T02:17:09.636Z,1
2023-04-07T02:19:09.861Z,1
2023-04-07T02:21:09.680Z,1
2023-04-07T02:23:09.673Z,1
2023-04-07T02:25:09.726Z,1
2023-04-07T02:27:09.720Z,1
2023-04-07T02:29:09.623Z,1
2023-04-07T02:31:13.540Z,1
2023-04-07T02:33:09.830Z,1
2023-04-07T02:35:09.648Z,1
2023-04-07T02:37:09.971Z,1
2023-04-07T02:39:09.652Z,1
2023-04-07T02:43:09.830Z,1
2023-04-07T02:45:09.908Z,1
2023-04-07T02:47:09.758Z,1
2023-04-07T02:51:09.917Z,1
2023-04-07T02:53:09.838Z,1
2023-04-07T02:55:09.652Z,1
2023-04-07T02:57:13.193Z,1
2023-04-07T02:59:16.443Z,1
2023-04-07T03:01:09.773Z,1
2023-04-07T03:03:09.980Z,1
2023-04-07T03:05:09.686Z,1
2023-04-07T03:07:09.660Z,1
2023-04-07T03:09:09.845Z,1
2023-04-07T03:11:09.824Z,1
2023-04-07T03:13:13.340Z,1
2023-04-07T03:15:17.643Z,1
2023-04-07T03:17:09.854Z,1
2023-04-07T03:19:09.787Z,1
2023-04-07T03:21:13.128Z,1
2023-04-07T03:23:09.663Z,1
2023-04-07T03:25:09.721Z,1
2023-04-07T03:27:13.268Z,1
2023-04-07T03:29:09.741Z,1
2023-04-07T03:31:09.666Z,1
2023-04-07T03:33:09.708Z,1
2023-04-07T03:35:09.790Z,1
2023-04-07T03:37:09.646Z,1
2023-04-07T03:39:09.751Z,1
2023-04-07T03:41:09.847Z,1
2023-04-07T03:43:09.927Z,1
2023-04-07T03:45:12.849Z,1
2023-04-07T03:47:09.735Z,1
2023-04-07T03:49:09.917Z,1
2023-04-07T03:51:13.413Z,1
2023-04-07T03:53:09.846Z,1
2023-04-07T03:55:09.674Z,1
2023-04-07T03:57:13.316Z,1
2023-04-07T03:59:10.000Z,1
2023-04-07T04:01:13.231Z,0
2023-04-07T04:03:13.476Z,0
2023-04-07T04:05:09.672Z,0
2023-04-07T04:07:09.665Z,0.1
2023-04-07T04:09:09.831Z,0.2
2023-04-07T04:11:09.922Z,0.2
2023-04-07T04:13:09.925Z,0.3
2023-04-07T04:15:13.324Z,0.4
2023-04-07T04:17:09.680Z,0.6
2023-04-07T04:19:09.847Z,0.8
2023-04-07T04:21:09.930Z,1.2
2023-04-07T04:23:09.654Z,1.6
2023-04-07T04:25:09.895Z,2.7
2023-04-07T04:27:16.396Z,4.7
2023-04-07T04:29:12.850Z,7
2023-04-07T04:31:09.799Z,11
2023-04-07T04:33:09.734Z,15.6
2023-04-07T04:35:09.738Z,20.1
2023-04-07T04:37:09.846Z,24.5
2023-04-07T04:39:09.723Z,28.5
2023-04-07T04:41:09.693Z,33.1
2023-04-07T04:43:09.844Z,38.5
2023-04-07T04:45:09.923Z,47
2023-04-07T04:47:09.902Z,57.4
2023-04-07T04:49:10.030Z,66.7
2023-04-07T04:51:09.750Z,81.5
2023-04-07T04:53:09.676Z,90
2023-04-07T04:55:09.931Z,99.5
2023-04-07T04:57:16.419Z,104.6
2023-04-07T04:59:09.756Z,104.6
2023-04-07T05:01:09.883Z,109.9
2023-04-07T05:03:10.146Z,109.9
2023-04-07T05:05:09.883Z,115.6
2023-04-07T05:07:09.991Z,127.7
2023-04-07T05:09:09.862Z,148.4
2023-04-07T05:11:13.196Z,172.4
2023-04-07T05:13:09.835Z,200.3
2023-04-07T05:15:09.920Z,232.8
2023-04-07T05:17:09.912Z,257.2
2023-04-07T05:19:09.667Z,284.3
2023-04-07T05:21:09.988Z,314.2
2023-04-07T05:23:09.955Z,347.2
2023-04-07T05:25:09.893Z,403.4
2023-04-07T05:27:10.057Z,445.9
2023-04-07T05:29:09.930Z,492.7
2023-04-07T05:31:09.888Z,544.6
2023-04-07T05:33:09.913Z,601.8
2023-04-07T05:35:09.963Z,665.1
2023-04-07T05:37:09.796Z,665.1
2023-04-07T05:39:09.827Z,699.2
2023-04-07T05:41:09.846Z,772.8
2023-04-07T05:43:16.503Z,812.4
2023-04-07T05:45:10.195Z,812.4
2023-04-07T05:47:13.527Z,699.2
2023-04-07T05:49:19.388Z,572.5
2023-04-07T05:51:09.874Z,492.7
2023-04-07T05:53:16.367Z,468.7
2023-04-07T05:55:13.978Z,572.5
2023-04-07T05:57:09.918Z,772.8
2023-04-07T05:59:09.859Z,1152.9
2023-04-07T06:01:16.376Z,1408.1
2023-04-07T06:03:13.162Z,1480.3
2023-04-07T06:05:09.740Z,1480.3
2023-04-07T06:07:09.946Z,1480.3
2023-04-07T06:09:09.745Z,1636
2023-04-07T06:11:09.759Z,1636
2023-04-07T06:13:09.640Z,1719.9
2023-04-07T06:15:09.725Z,1808
2023-04-07T06:17:09.774Z,1900.7
2023-04-07T06:19:09.713Z,2100.6
2023-04-07T06:21:09.709Z,2321.6
2023-04-07T06:23:09.784Z,2440.6
2023-04-07T06:25:09.946Z,2697.3
2023-04-07T06:27:13.301Z,2835.6
2023-04-07T06:29:09.761Z,2835.6
2023-04-07T06:31:13.460Z,2697.3
2023-04-07T06:33:09.931Z,2565.7
2023-04-07T06:35:12.898Z,2440.6
2023-04-07T06:37:09.966Z,2321.6
2023-04-07T06:39:13.176Z,2208.3
2023-04-07T06:41:09.707Z,2100.6
2023-04-07T06:43:13.410Z,2100.6
2023-04-07T06:47:09.729Z,1998.2
2023-04-07T06:49:09.762Z,1998.2
2023-04-07T06:51:09.745Z,1900.7
2023-04-07T06:53:09.876Z,1900.7
2023-04-07T06:55:14.763Z,1900.7
2023-04-07T06:57:09.928Z,1808
2023-04-07T06:59:09.811Z,1719.9
2023-04-07T07:01:09.905Z,1636
2023-04-07T07:03:10.186Z,1636
2023-04-07T07:05:09.891Z,1636
2023-04-07T07:07:09.890Z,1719.9
2023-04-07T07:09:10.063Z,1900.7
2023-04-07T07:11:09.707Z,1998.2
2023-04-07T07:13:09.710Z,2208.3
2023-04-07T07:15:09.738Z,2440.6
2023-04-07T07:17:10.226Z,2565.7
2023-04-07T07:19:13.311Z,2697.3
2023-04-07T07:21:09.973Z,2835.6
2023-04-07T07:23:13.466Z,2835.6
2023-04-07T07:25:09.747Z,2835.6
2023-04-07T07:27:09.877Z,2981
2023-04-07T07:29:09.995Z,2981
2023-04-07T07:31:09.776Z,3133.8
2023-04-07T07:33:10.124Z,3294.5
2023-04-07T07:35:09.984Z,3463.4
2023-04-07T07:37:09.722Z,3641
2023-04-07T07:39:09.944Z,3827.6
2023-04-07T07:41:09.718Z,4230.2
2023-04-07T07:43:09.745Z,4447.1
2023-04-07T07:45:09.919Z,4914.8
2023-04-07T07:47:10.000Z,5166.8
2023-04-07T07:49:09.936Z,5166.8
2023-04-07T07:51:09.788Z,5431.7
2023-04-07T07:53:13.302Z,5431.7
2023-04-07T07:55:16.820Z,5431.7
2023-04-07T07:57:10.051Z,5166.8
2023-04-07T07:59:09.860Z,4914.8
2023-04-07T08:01:09.847Z,4675.1
2023-04-07T08:03:11.090Z,4675.1
2023-04-07T08:05:09.749Z,5166.8
2023-04-07T08:07:10.078Z,5710.1
2023-04-07T08:09:09.726Z,6310.7
2023-04-07T08:11:09.883Z,6634.2
2023-04-07T08:13:10.044Z,6634.2
2023-04-07T08:15:10.032Z,6634.2
2023-04-07T08:17:09.979Z,6974.4
2023-04-07T08:19:13.430Z,6974.4
2023-04-07T08:21:16.435Z,6974.4
2023-04-07T08:23:09.724Z,6310.7
2023-04-07T08:25:09.809Z,5710.1
2023-04-07T08:27:13.343Z,5166.8
2023-04-07T08:29:09.906Z,4675.1
2023-04-07T08:31:13.392Z,4675.1
2023-04-07T08:33:09.827Z,4914.8
2023-04-07T08:37:13.343Z,6002.9
2023-04-07T08:39:13.380Z,6002.9
2023-04-07T08:41:13.353Z,6002.9
2023-04-07T08:43:09.939Z,6310.7
2023-04-07T08:45:09.865Z,6634.2
2023-04-07T08:47:09.807Z,6974.4
2023-04-07T08:49:10.055Z,6634.2
2023-04-07T08:51:10.304Z,6002.9
2023-04-07T08:53:13.305Z,5431.7
2023-04-07T08:55:16.454Z,5166.8
2023-04-07T08:57:10.058Z,4914.8
2023-04-07T08:59:09.913Z,4675.1
2023-04-07T09:01:10.057Z,4914.8
2023-04-07T09:03:13.446Z,5166.8
2023-04-07T09:05:09.747Z,5431.7
2023-04-07T09:07:13.327Z,5710.1
2023-04-07T09:09:16.583Z,5710.1
2023-04-07T09:11:09.764Z,6002.9
2023-04-07T09:15:09.812Z,6310.7
2023-04-07T09:17:13.261Z,6310.7
2023-04-07T09:19:09.930Z,6310.7
2023-04-07T09:21:09.700Z,6634.2
2023-04-07T09:23:09.767Z,6634.2
2023-04-07T09:25:10.135Z,6974.4
2023-04-07T09:27:09.881Z,7707.9
2023-04-07T09:29:13.559Z,8518.5
2023-04-07T09:31:16.613Z,9897.1
2023-04-07T09:33:10.145Z,10938
2023-04-07T09:35:16.416Z,12708.2
2023-04-07T09:37:09.921Z,14044.7
2023-04-07T09:41:12.818Z,14764.8
2023-04-07T09:45:18.574Z,15521.8
2023-04-07T09:47:13.402Z,15521.8
2023-04-07T09:49:13.188Z,14044.7
2023-04-07T09:51:13.118Z,13359.7
2023-04-07T09:53:16.232Z,12708.2
2023-04-07T09:55:09.783Z,12708.2
2023-04-07T09:57:10.025Z,12088.4
2023-04-07T09:59:09.756Z,12088.4
2023-04-07T10:01:09.814Z,12708.2
2023-04-07T10:03:10.110Z,12708.2
2023-04-07T10:05:09.853Z,12708.2
2023-04-07T10:07:09.810Z,12708.2
2023-04-07T10:09:09.845Z,13359.7
2023-04-07T10:11:09.991Z,14044.7
2023-04-07T10:13:10.107Z,14764.8
2023-04-07T10:15:09.791Z,16317.6
2023-04-07T10:17:09.972Z,18958.4
2023-04-07T10:19:09.915Z,18958.4
2023-04-07T10:21:10.041Z,18033.7
2023-04-07T10:23:09.855Z,18033.7
2023-04-07T10:25:09.815Z,17154.2
2023-04-07T10:27:09.716Z,14044.7
2023-04-07T10:29:10.095Z,12088.4
2023-04-07T10:31:09.871Z,9897.1
2023-04-07T10:33:16.578Z,8955.3
2023-04-07T10:35:09.885Z,8955.3
2023-04-07T10:37:16.417Z,8955.3
2023-04-07T10:39:16.532Z,9414.4
2023-04-07T10:41:09.700Z,9897.1
2023-04-07T10:43:09.840Z,9897.1
2023-04-07T10:45:10.032Z,9897.1
2023-04-07T10:47:09.828Z,10404.6
2023-04-07T10:49:13.089Z,10404.6
2023-04-07T10:51:10.000Z,10404.6
2023-04-07T10:53:13.016Z,10938
2023-04-07T10:55:09.897Z,10404.6
2023-04-07T10:57:16.705Z,10938
2023-04-07T10:59:09.875Z,10938
2023-04-07T11:01:09.930Z,10938
2023-04-07T11:05:13.057Z,10938
2023-04-07T11:07:09.907Z,10938
2023-04-07T11:09:09.940Z,10938
2023-04-07T11:11:09.874Z,10404.6
2023-04-07T11:13:09.700Z,9414.4
2023-04-07T11:15:09.799Z,8955.3
2023-04-07T11:17:13.418Z,8518.5
2023-04-07T11:19:09.781Z,8103.1
2023-04-07T11:21:09.807Z,7332
2023-04-07T11:23:16.506Z,6974.4
2023-04-07T11:25:09.801Z,6974.4
2023-04-07T11:27:09.739Z,6634.2
2023-04-07T11:29:09.836Z,6634.2
2023-04-07T11:31:09.709Z,6310.7
2023-04-07T11:33:09.810Z,6002.9
2023-04-07T11:35:09.951Z,5710.1
2023-04-07T11:37:09.800Z,5431.7
2023-04-07T11:39:13.448Z,5166.8
2023-04-07T11:41:09.747Z,5166.8
2023-04-07T11:43:09.696Z,5166.8
2023-04-07T11:45:09.830Z,5431.7
2023-04-07T11:47:09.827Z,5431.7
2023-04-07T11:49:10.202Z,5431.7
2023-04-07T11:51:16.389Z,5166.8
2023-04-07T11:55:09.799Z,5166.8
2023-04-07T11:57:09.873Z,5166.8
2023-04-07T11:59:09.898Z,5166.8
2023-04-07T12:01:13.348Z,5166.8
2023-04-07T12:03:16.684Z,5166.8
2023-04-07T12:05:09.854Z,5166.8
2023-04-07T12:07:09.954Z,4914.8
2023-04-07T12:09:09.711Z,4914.8
2023-04-07T12:11:10.066Z,5166.8
2023-04-07T12:13:13.399Z,5166.8
2023-04-07T12:15:16.503Z,5710.1
2023-04-07T12:17:09.691Z,5710.1
2023-04-07T12:19:13.384Z,6002.9
2023-04-07T12:21:13.416Z,6310.7
2023-04-07T12:23:13.101Z,6310.7
2023-04-07T12:25:10.294Z,6310.7
2023-04-07T12:27:13.397Z,6310.7
2023-04-07T12:29:13.378Z,6002.9
2023-04-07T12:31:09.794Z,6002.9
2023-04-07T12:33:09.845Z,6002.9
2023-04-07T12:35:10.083Z,6002.9
2023-04-07T12:37:09.880Z,6310.7
2023-04-07T12:39:09.948Z,6310.7
2023-04-07T12:41:09.962Z,6310.7
2023-04-07T12:43:13.413Z,6310.7
2023-04-07T12:45:09.942Z,6310.7
2023-04-07T12:47:12.933Z,6634.2
2023-04-07T12:49:09.841Z,6634.2
2023-04-07T12:51:09.989Z,6974.4
2023-04-07T12:53:13.333Z,6974.4
2023-04-07T12:55:13.676Z,6634.2
2023-04-07T12:57:09.733Z,6310.7
2023-04-07T12:59:09.841Z,6002.9
2023-04-07T13:01:09.845Z,6002.9
2023-04-07T13:03:10.460Z,5710.1
2023-04-07T13:05:13.248Z,6002.9
2023-04-07T13:07:13.361Z,5710.1
2023-04-07T13:09:13.490Z,5710.1
2023-04-07T13:11:09.778Z,5710.1
2023-04-07T13:13:13.244Z,5710.1
2023-04-07T13:15:13.134Z,5431.7
2023-04-07T13:17:09.918Z,5166.8
2023-04-07T13:19:09.955Z,4914.8
2023-04-07T13:23:10.479Z,4675.1
2023-04-07T13:25:09.783Z,4675.1
2023-04-07T13:27:10.026Z,4447.1
2023-04-07T13:29:09.881Z,4447.1
2023-04-07T13:31:09.920Z,4675.1
2023-04-07T13:33:10.076Z,4914.8
2023-04-07T13:35:10.202Z,5166.8
2023-04-07T13:37:09.678Z,5710.1
2023-04-07T13:39:09.911Z,6310.7
2023-04-07T13:41:09.821Z,6634.2
2023-04-07T13:43:09.828Z,6634.2
2023-04-07T13:45:10.319Z,6634.2
2023-04-07T13:47:09.820Z,6634.2
2023-04-07T13:49:09.966Z,6634.2
2023-04-07T13:51:09.861Z,6634.2
2023-04-07T13:53:13.520Z,6634.2
2023-04-07T13:55:13.489Z,6310.7
2023-04-07T13:57:09.907Z,6310.7
2023-04-07T13:59:09.817Z,6310.7
2023-04-07T14:01:09.942Z,6634.2
2023-04-07T14:03:09.923Z,7332
2023-04-07T14:05:09.783Z,7332
2023-04-07T14:07:10.003Z,6974.4
2023-04-07T14:09:09.997Z,6974.4
2023-04-07T14:11:13.440Z,6634.2
2023-04-07T14:13:09.904Z,6310.7
2023-04-07T14:15:09.829Z,6310.7
2023-04-07T14:17:10.038Z,6634.2
2023-04-07T14:19:09.878Z,6974.4
2023-04-07T14:21:09.861Z,7707.9
2023-04-07T14:23:10.060Z,8103.1
2023-04-07T14:25:14.596Z,8103.1
2023-04-07T14:27:09.803Z,7707.9
2023-04-07T14:29:09.967Z,7707.9
2023-04-07T14:31:13.377Z,7332
2023-04-07T14:33:09.856Z,6974.4
2023-04-07T14:35:09.847Z,6634.2
2023-04-07T14:37:10.179Z,6002.9
2023-04-07T14:39:09.922Z,5431.7
2023-04-07T14:41:10.360Z,5166.8
2023-04-07T14:43:13.465Z,5166.8
2023-04-07T14:45:09.923Z,5166.8
2023-04-07T14:47:10.067Z,4914.8
2023-04-07T14:49:09.849Z,4914.8
2023-04-07T14:51:12.998Z,4675.1
2023-04-07T14:53:09.894Z,4675.1
2023-04-07T14:55:13.622Z,4675.1
2023-04-07T14:57:09.789Z,4447.1
2023-04-07T14:59:13.589Z,4447.1
2023-04-07T15:01:10.027Z,4447.1
2023-04-07T15:03:13.800Z,4447.1
2023-04-07T15:05:09.782Z,4230.2
2023-04-07T15:07:09.895Z,3827.6
2023-04-07T15:09:10.101Z,3463.4
2023-04-07T15:11:13.567Z,3133.8
2023-04-07T15:13:09.953Z,2981
2023-04-07T15:15:13.165Z,2565.7
2023-04-07T15:17:13.319Z,2440.6
2023-04-07T15:19:09.790Z,2208.3
2023-04-07T15:21:13.434Z,2100.6
2023-04-07T15:23:16.549Z,1900.7
2023-04-07T15:25:14.198Z,1900.7
2023-04-07T15:27:10.039Z,1900.7
2023-04-07T15:29:09.893Z,1900.7
2023-04-07T15:31:10.050Z,1900.7
2023-04-07T15:35:09.902Z,1900.7
2023-04-07T15:37:10.020Z,1808
2023-04-07T15:39:09.929Z,1808
2023-04-07T15:41:09.987Z,1900.7
2023-04-07T15:43:10.065Z,1900.7
2023-04-07T15:45:13.322Z,1900.7
2023-04-07T15:47:13.238Z,1808
2023-04-07T15:49:10.020Z,1808
2023-04-07T15:51:09.992Z,1808
2023-04-07T15:53:13.433Z,1719.9
2023-04-07T15:55:10.294Z,1636
2023-04-07T15:57:16.436Z,1556.2
2023-04-07T15:59:09.866Z,1480.3
2023-04-07T16:01:16.660Z,1408.1
2023-04-07T16:03:13.423Z,1339.4
2023-04-07T16:05:13.452Z,1339.4
2023-04-07T16:07:09.774Z,1274.1
2023-04-07T16:09:13.517Z,1274.1
2023-04-07T16:11:09.962Z,1212
2023-04-07T16:13:35.929Z,1152.9
2023-04-07T16:15:10.000Z,1152.9
2023-04-07T16:17:11.212Z,1096.6
2023-04-07T16:19:09.951Z,1096.6
2023-04-07T16:21:16.532Z,1043.1
2023-04-07T16:23:10.133Z,1043.1
2023-04-07T16:25:10.068Z,992.3
2023-04-07T16:27:09.718Z,943.9
2023-04-07T16:29:09.918Z,897.8
2023-04-07T16:31:09.943Z,897.8
2023-04-07T16:33:16.523Z,854.1
2023-04-07T16:35:13.284Z,812.4
2023-04-07T16:37:13.431Z,735.1
2023-04-07T16:39:10.338Z,699.2
2023-04-07T16:41:13.484Z,665.1
2023-04-07T16:43:16.989Z,632.7
2023-04-07T16:45:09.762Z,601.8
2023-04-07T16:47:09.829Z,544.6
2023-04-07T16:49:09.955Z,518
2023-04-07T16:51:10.394Z,492.7
2023-04-07T16:53:13.504Z,468.7
2023-04-07T16:55:09.912Z,445.9
2023-04-07T16:57:13.403Z,424.1
2023-04-07T16:59:10.121Z,403.4
2023-04-07T17:03:10.165Z,347.2
2023-04-07T17:05:13.602Z,330.3
2023-04-07T17:07:09.949Z,314.2
2023-04-07T17:09:10.163Z,284.3
2023-04-07T17:11:09.794Z,270.4
2023-04-07T17:13:10.122Z,257.2
2023-04-07T17:15:10.118Z,244.7
2023-04-07T17:17:13.547Z,221.4
2023-04-07T17:19:13.347Z,210.6
2023-04-07T17:21:13.570Z,190.6
2023-04-07T17:23:13.311Z,181.3
2023-04-07T17:25:09.981Z,164
2023-04-07T17:27:09.940Z,156
2023-04-07T17:29:09.936Z,141.2
2023-04-07T17:31:09.911Z,134.3
2023-04-07T17:33:09.968Z,121.5
2023-04-07T17:35:13.161Z,109.9
2023-04-07T17:37:09.743Z,99.5
2023-04-07T17:39:13.215Z,90
2023-04-07T17:41:13.451Z,81.5
2023-04-07T17:43:09.953Z,73.7
2023-04-07T17:45:09.766Z,63.4
2023-04-07T17:47:13.313Z,54.6
2023-04-07T17:49:09.808Z,47
2023-04-07T17:51:10.064Z,40.4
2023-04-07T17:53:13.288Z,33.1
2023-04-07T17:55:09.841Z,27.1
2023-04-07T17:57:13.851Z,22.2
2023-04-07T17:59:09.954Z,17.3
2023-04-07T18:01:10.090Z,13.5
2023-04-07T18:03:13.841Z,10.5
2023-04-07T18:05:10.069Z,8.2
2023-04-07T18:07:09.986Z,6
2023-04-07T18:09:09.945Z,4.3
2023-04-07T18:13:09.798Z,2.2
2023-04-07T18:15:09.980Z,1.5
2023-04-07T18:17:10.001Z,1.1
2023-04-07T18:19:10.473Z,0.7
2023-04-07T18:21:16.416Z,0.5
2023-04-07T18:23:10.162Z,0.3
2023-04-07T18:25:09.879Z,0.3
2023-04-07T18:27:09.913Z,0.1
2023-04-07T18:29:10.309Z,0.1
2023-04-07T18:31:10.030Z,0.1
2023-04-07T18:33:10.100Z,0
2023-04-07T18:35:16.380Z,0
2023-04-07T18:37:09.780Z,0
2023-04-07T18:39:10.701Z,0
2023-04-07T18:41:10.107Z,0
2023-04-07T18:43:17.359Z,1
2023-04-07T18:45:10.138Z,1
2023-04-07T18:47:09.927Z,1
2023-04-07T18:49:09.948Z,1
2023-04-07T18:51:10.502Z,1
2023-04-07T18:53:09.927Z,1
2023-04-07T18:55:10.411Z,1
2023-04-07T18:59:09.738Z,1
2023-04-07T19:01:10.166Z,1
2023-04-07T19:03:10.159Z,1
2023-04-07T19:05:10.158Z,1
2023-04-07T19:07:13.642Z,1
2023-04-07T19:09:10.053Z,1
2023-04-07T19:11:10.809Z,1
2023-04-07T19:13:14.021Z,1
2023-04-07T19:15:09.969Z,1
2023-04-07T19:17:09.989Z,1
2023-04-07T19:19:09.970Z,1
2023-04-07T19:21:10.053Z,1
2023-04-07T19:23:13.449Z,1
2023-04-07T19:25:10.297Z,1
2023-04-07T19:27:09.958Z,1
2023-04-07T19:29:10.097Z,1
2023-04-07T19:31:10.107Z,1
2023-04-07T19:33:09.933Z,1
2023-04-07T19:35:10.226Z,1
2023-04-07T19:37:13.479Z,1
2023-04-07T19:39:09.814Z,1
2023-04-07T19:41:10.375Z,1
2023-04-07T19:43:09.778Z,1
2023-04-07T19:45:10.297Z,1
2023-04-07T19:47:13.448Z,1
2023-04-07T19:49:09.884Z,1
2023-04-07T19:51:09.851Z,1
2023-04-07T19:53:10.594Z,1
2023-04-07T19:55:10.956Z,1
2023-04-07T19:57:09.935Z,1
2023-04-07T19:59:10.033Z,1
2023-04-07T20:01:13.319Z,1
2023-04-07T20:03:13.257Z,1
2023-04-07T20:05:13.163Z,1
2023-04-07T20:07:09.969Z,1
2023-04-07T20:11:13.464Z,1
2023-04-07T20:13:09.875Z,1
2023-04-07T20:15:13.189Z,1
2023-04-07T20:17:09.931Z,1
2023-04-07T20:19:09.776Z,1
2023-04-07T20:21:09.934Z,1
2023-04-07T20:23:13.424Z,1
2023-04-07T20:25:09.927Z,1
2023-04-07T20:27:09.804Z,1
2023-04-07T20:29:10.249Z,1
2023-04-07T20:31:13.372Z,1
2023-04-07T20:33:09.897Z,1
2023-04-07T20:35:13.692Z,1
2023-04-07T20:39:10.162Z,1
2023-04-07T20:41:09.975Z,1
2023-04-07T20:43:14.044Z,1
2023-04-07T20:45:10.878Z,1
2023-04-07T20:47:09.807Z,1
2023-04-07T20:49:09.891Z,1
2023-04-07T20:51:09.911Z,1
2023-04-07T20:53:10.110Z,1
2023-04-07T20:55:10.009Z,1
2023-04-07T20:57:10.288Z,1
2023-04-07T20:59:09.936Z,1
2023-04-07T21:01:10.446Z,1
2023-04-07T21:03:09.878Z,1
2023-04-07T21:05:09.919Z,1
2023-04-07T21:07:13.288Z,1
2023-04-07T21:09:10.580Z,1
2023-04-07T21:11:10.067Z,1
2023-04-07T21:13:10.100Z,1
2023-04-07T21:15:09.934Z,1
2023-04-07T21:17:09.804Z,1
2023-04-07T21:19:10.120Z,1
2023-04-07T21:21:13.413Z,0
2023-04-07T21:23:09.814Z,0
2023-04-07T21:25:09.964Z,0
2023-04-07T21:27:09.879Z,0
2023-04-07T21:29:13.722Z,0
2023-04-07T21:31:10.045Z,0
2023-04-07T21:33:10.112Z,0
2023-04-07T21:35:10.838Z,0
2023-04-07T21:37:10.016Z,0
2023-04-07T21:39:09.970Z,0
2023-04-07T21:41:13.390Z,0
2023-04-07T21:43:13.802Z,0
2023-04-07T21:47:09.913Z,0
2023-04-07T21:49:10.206Z,0
2023-04-07T21:51:13.412Z,0
2023-04-07T21:53:10.865Z,0
2023-04-07T21:55:13.884Z,0
2023-04-07T21:57:09.846Z,0
2023-04-07T21:59:16.451Z,0
2023-04-07T22:01:09.930Z,0
2023-04-07T22:03:14.434Z,0
2023-04-07T22:05:10.411Z,0
2023-04-07T22:07:10.934Z,0
2023-04-07T22:09:16.932Z,0
2023-04-07T22:11:13.867Z,0
2023-04-07T22:13:13.472Z,0
2023-04-07T22:15:09.821Z,0
2023-04-07T22:17:10.148Z,0
2023-04-07T22:19:10.653Z,0
2023-04-07T22:21:10.129Z,0
2023-04-07T22:23:10.484Z,0
2023-04-07T22:25:10.155Z,0.1
2023-04-07T22:27:10.158Z,0.1
2023-04-07T22:29:10.216Z,0.1
2023-04-07T22:31:09.973Z,0.1
2023-04-07T22:33:13.281Z,0.1
2023-04-07T22:35:09.853Z,0.1
2023-04-07T22:37:10.082Z,0.1
2023-04-07T22:39:09.824Z,0.1
2023-04-07T22:41:13.310Z,0.1
2023-04-07T22:43:13.644Z,0.1
2023-04-07T22:45:09.821Z,0.1
2023-04-07T22:49:09.961Z,0.1
2023-04-07T22:51:09.899Z,0.1
2023-04-07T22:53:09.814Z,0.1
2023-04-07T22:55:09.816Z,0.1
2023-04-07T22:57:09.932Z,0.1
2023-04-07T22:59:13.344Z,0.1
2023-04-07T23:01:16.801Z,0.1
2023-04-07T23:03:09.901Z,0.1
2023-04-07T23:05:13.357Z,0.1
2023-04-07T23:07:09.929Z,0.1
2023-04-07T23:09:09.966Z,0.1
2023-04-07T23:11:13.849Z,0.1
2023-04-07T23:13:09.983Z,0.1
2023-04-07T23:15:09.880Z,0.1
2023-04-07T23:17:09.966Z,0.1
2023-04-07T23:19:17.381Z,0.1
2023-04-07T23:21:10.319Z,0.1
2023-04-07T23:23:10.274Z,0.1
2023-04-07T23:25:17.312Z,0.1
2023-04-07T23:27:09.838Z,0.1
2023-04-07T23:29:09.918Z,0.1
2023-04-07T23:31:09.813Z,0.1
2023-04-07T23:33:13.378Z,0.1
2023-04-07T23:35:09.952Z,0.1
2023-04-07T23:37:13.619Z,0.1
2023-04-07T23:39:10.647Z,0.1
2023-04-07T23:41:10.102Z,0.1
2023-04-07T23:43:13.302Z,0.1
2023-04-07T23:45:09.826Z,0.1
2023-04-07T23:47:10.019Z,0.1
2023-04-07T23:49:10.166Z,0.1
2023-04-07T23:51:09.816Z,0.1
2023-04-07T23:53:09.904Z,0.1
2023-04-07T23:55:09.824Z,0.1
2023-04-07T23:57:10.496Z,0.1
2023-04-07T23:59:10.235Z,0.1
